Cajon Junction, California
Current Conditions -  °F | °C
As of 7:50 AM on Thursday 29 Jan 2015 (Local Time) from KSBD Reporting Station
Overcast Overcast  
Wind Chill: 54°   Ceiling: 12000
Heat Index: 54°   Visibility: 10mi
Dew Point: 43°   Wind: 5mph
Humidity: 67%   Direction: 100°E
Pressure: 30.08"   Gusts: NA
Location:  34.2759°N, 117.303°W
Report Text: KSBD 291550Z 10004KT 10SM OVC120 12/06 A3008
Loading
Personal Weather Stations






























Interactive Weather Map New forecast layout! Learn more

10-Day Weather Forecast

Advertisements
Track Severe Weather on mobile